sensor_id;sensor_type;location;lat;lon;timestamp;temperature;humidity
506;DHT22;551;48.524;9.056;2023-07-09T00:01:56;21.40;1.00
506;DHT22;551;48.524;9.056;2023-07-09T00:04:22;21.30;1.00
506;DHT22;551;48.524;9.056;2023-07-09T00:06:47;21.40;1.00
506;DHT22;551;48.524;9.056;2023-07-09T00:09:18;21.30;1.00
506;DHT22;551;48.524;9.056;2023-07-09T00:11:45;21.30;1.00
506;DHT22;551;48.524;9.056;2023-07-09T00:14:13;21.30;1.00
506;DHT22;551;48.524;9.056;2023-07-09T00:16:40;21.30;1.00
506;DHT22;551;48.524;9.056;2023-07-09T00:19:11;21.30;1.00
506;DHT22;551;48.524;9.056;2023-07-09T00:21:39;21.20;1.00
506;DHT22;551;48.524;9.056;2023-07-09T00:24:04;21.20;1.00
506;DHT22;551;48.524;9.056;2023-07-09T00:26:31;21.20;1.00
506;DHT22;551;48.524;9.056;2023-07-09T00:29:03;21.20;1.00
506;DHT22;551;48.524;9.056;2023-07-09T00:31:29;21.10;1.00
506;DHT22;551;48.524;9.056;2023-07-09T00:33:54;21.10;1.00
506;DHT22;551;48.524;9.056;2023-07-09T00:36:29;21.10;1.00
506;DHT22;551;48.524;9.056;2023-07-09T00:38:57;21.10;1.00
506;DHT22;551;48.524;9.056;2023-07-09T00:41:25;21.10;1.00
506;DHT22;551;48.524;9.056;2023-07-09T00:43:51;21.00;1.00
506;DHT22;551;48.524;9.056;2023-07-09T00:48:50;21.00;1.00
506;DHT22;551;48.524;9.056;2023-07-09T00:51:19;20.90;1.00
506;DHT22;551;48.524;9.056;2023-07-09T00:53:46;20.80;1.00
506;DHT22;551;48.524;9.056;2023-07-09T00:56:21;20.80;1.00
506;DHT22;551;48.524;9.056;2023-07-09T00:58:51;20.70;1.00
506;DHT22;551;48.524;9.056;2023-07-09T01:01:18;20.70;1.00
506;DHT22;551;48.524;9.056;2023-07-09T01:03:47;20.70;1.00
506;DHT22;551;48.524;9.056;2023-07-09T01:06:13;20.70;1.00
506;DHT22;551;48.524;9.056;2023-07-09T01:08:41;20.60;1.00
506;DHT22;551;48.524;9.056;2023-07-09T01:11:21;20.60;1.00
506;DHT22;551;48.524;9.056;2023-07-09T01:13:52;20.50;1.00
506;DHT22;551;48.524;9.056;2023-07-09T01:16:20;20.50;1.00
506;DHT22;551;48.524;9.056;2023-07-09T01:18:52;20.40;1.00
506;DHT22;551;48.524;9.056;2023-07-09T01:21:18;20.40;1.00
506;DHT22;551;48.524;9.056;2023-07-09T01:23:46;20.40;1.00
506;DHT22;551;48.524;9.056;2023-07-09T01:26:20;20.30;1.00
506;DHT22;551;48.524;9.056;2023-07-09T01:28:46;20.30;1.00
506;DHT22;551;48.524;9.056;2023-07-09T01:31:13;20.30;1.00
506;DHT22;551;48.524;9.056;2023-07-09T01:33:43;20.30;1.00
506;DHT22;551;48.524;9.056;2023-07-09T01:36:15;20.20;1.00
506;DHT22;551;48.524;9.056;2023-07-09T01:38:42;20.20;1.00
506;DHT22;551;48.524;9.056;2023-07-09T01:41:09;20.20;1.00
506;DHT22;551;48.524;9.056;2023-07-09T01:43:40;20.10;1.00
506;DHT22;551;48.524;9.056;2023-07-09T01:46:07;20.10;1.00
506;DHT22;551;48.524;9.056;2023-07-09T01:48:34;20.10;1.00
506;DHT22;551;48.524;9.056;2023-07-09T01:51:07;20.00;1.00
506;DHT22;551;48.524;9.056;2023-07-09T01:53:34;20.00;1.00
506;DHT22;551;48.524;9.056;2023-07-09T01:56:02;20.00;1.00
506;DHT22;551;48.524;9.056;2023-07-09T01:58:28;20.00;1.00
506;DHT22;551;48.524;9.056;2023-07-09T02:00:56;20.00;1.00
506;DHT22;551;48.524;9.056;2023-07-09T02:03:21;20.00;1.00
506;DHT22;551;48.524;9.056;2023-07-09T02:05:48;20.00;1.00
506;DHT22;551;48.524;9.056;2023-07-09T02:08:13;19.90;1.00
506;DHT22;551;48.524;9.056;2023-07-09T02:10:38;19.90;1.00
506;DHT22;551;48.524;9.056;2023-07-09T02:13:04;19.80;1.00
506;DHT22;551;48.524;9.056;2023-07-09T02:15:30;19.80;1.00
506;DHT22;551;48.524;9.056;2023-07-09T02:17:56;19.80;1.00
506;DHT22;551;48.524;9.056;2023-07-09T02:20:24;19.70;1.00
506;DHT22;551;48.524;9.056;2023-07-09T02:22:51;19.70;1.00
506;DHT22;551;48.524;9.056;2023-07-09T02:25:17;19.70;1.00
506;DHT22;551;48.524;9.056;2023-07-09T02:27:42;19.60;1.00
506;DHT22;551;48.524;9.056;2023-07-09T02:30:08;19.60;1.00
506;DHT22;551;48.524;9.056;2023-07-09T02:32:34;19.60;1.00
506;DHT22;551;48.524;9.056;2023-07-09T02:34:59;19.60;1.00
506;DHT22;551;48.524;9.056;2023-07-09T02:37:26;19.60;1.00
506;DHT22;551;48.524;9.056;2023-07-09T02:39:52;19.60;1.00
506;DHT22;551;48.524;9.056;2023-07-09T02:42:19;19.60;1.00
506;DHT22;551;48.524;9.056;2023-07-09T02:44:45;19.50;1.00
506;DHT22;551;48.524;9.056;2023-07-09T02:47:12;19.50;1.00
506;DHT22;551;48.524;9.056;2023-07-09T02:49:39;19.40;1.00
506;DHT22;551;48.524;9.056;2023-07-09T02:52:05;19.40;1.00
506;DHT22;551;48.524;9.056;2023-07-09T02:54:31;19.40;1.00
506;DHT22;551;48.524;9.056;2023-07-09T02:56:56;19.40;1.00
506;DHT22;551;48.524;9.056;2023-07-09T02:59:22;19.40;1.00
506;DHT22;551;48.524;9.056;2023-07-09T03:01:48;19.30;1.00
506;DHT22;551;48.524;9.056;2023-07-09T03:04:14;19.30;1.00
506;DHT22;551;48.524;9.056;2023-07-09T03:06:40;19.20;1.00
506;DHT22;551;48.524;9.056;2023-07-09T03:09:06;19.20;1.00
506;DHT22;551;48.524;9.056;2023-07-09T03:11:33;19.10;1.00
506;DHT22;551;48.524;9.056;2023-07-09T03:13:59;19.00;1.00
506;DHT22;551;48.524;9.056;2023-07-09T03:16:30;19.00;1.00
506;DHT22;551;48.524;9.056;2023-07-09T03:18:56;18.90;1.00
506;DHT22;551;48.524;9.056;2023-07-09T03:21:23;18.90;1.00
506;DHT22;551;48.524;9.056;2023-07-09T03:23:49;18.90;1.00
506;DHT22;551;48.524;9.056;2023-07-09T03:26:15;18.90;1.00
506;DHT22;551;48.524;9.056;2023-07-09T03:28:40;18.80;1.00
506;DHT22;551;48.524;9.056;2023-07-09T03:31:06;18.80;1.00
506;DHT22;551;48.524;9.056;2023-07-09T03:33:31;18.80;1.00
506;DHT22;551;48.524;9.056;2023-07-09T03:35:57;18.80;1.00
506;DHT22;551;48.524;9.056;2023-07-09T03:38:22;18.70;1.00
506;DHT22;551;48.524;9.056;2023-07-09T03:40:53;18.70;1.00
506;DHT22;551;48.524;9.056;2023-07-09T03:43:19;18.70;1.00
506;DHT22;551;48.524;9.056;2023-07-09T03:45:45;18.70;1.00
506;DHT22;551;48.524;9.056;2023-07-09T03:48:12;18.70;1.00
506;DHT22;551;48.524;9.056;2023-07-09T03:50:38;18.80;1.00
506;DHT22;551;48.524;9.056;2023-07-09T03:53:03;18.80;1.00
506;DHT22;551;48.524;9.056;2023-07-09T03:55:31;18.80;1.00
506;DHT22;551;48.524;9.056;2023-07-09T03:57:57;18.80;1.00
506;DHT22;551;48.524;9.056;2023-07-09T04:00:23;18.80;1.00
506;DHT22;551;48.524;9.056;2023-07-09T04:02:49;18.90;1.00
506;DHT22;551;48.524;9.056;2023-07-09T04:05:15;18.90;1.00
506;DHT22;551;48.524;9.056;2023-07-09T04:07:41;18.90;1.00
506;DHT22;551;48.524;9.056;2023-07-09T04:10:06;18.90;1.00
506;DHT22;551;48.524;9.056;2023-07-09T04:12:32;18.90;1.00
506;DHT22;551;48.524;9.056;2023-07-09T04:14:58;18.90;1.00
506;DHT22;551;48.524;9.056;2023-07-09T04:17:24;18.90;1.00
506;DHT22;551;48.524;9.056;2023-07-09T04:19:50;19.00;1.00
506;DHT22;551;48.524;9.056;2023-07-09T04:22:16;19.00;1.00
506;DHT22;551;48.524;9.056;2023-07-09T04:24:42;19.10;1.00
506;DHT22;551;48.524;9.056;2023-07-09T04:27:08;19.10;1.00
506;DHT22;551;48.524;9.056;2023-07-09T04:29:33;19.10;1.00
506;DHT22;551;48.524;9.056;2023-07-09T04:32:01;19.10;1.00
506;DHT22;551;48.524;9.056;2023-07-09T04:34:26;19.10;1.00
506;DHT22;551;48.524;9.056;2023-07-09T04:36:52;19.20;1.00
506;DHT22;551;48.524;9.056;2023-07-09T04:39:17;19.20;1.00
506;DHT22;551;48.524;9.056;2023-07-09T04:41:43;19.20;1.00
506;DHT22;551;48.524;9.056;2023-07-09T04:44:08;19.30;1.00
506;DHT22;551;48.524;9.056;2023-07-09T04:46:34;19.30;1.00
506;DHT22;551;48.524;9.056;2023-07-09T04:48:59;19.30;1.00
506;DHT22;551;48.524;9.056;2023-07-09T04:51:26;19.50;1.00
506;DHT22;551;48.524;9.056;2023-07-09T04:53:51;19.60;1.00
506;DHT22;551;48.524;9.056;2023-07-09T04:56:17;19.80;1.00
506;DHT22;551;48.524;9.056;2023-07-09T04:58:43;20.50;1.00
506;DHT22;551;48.524;9.056;2023-07-09T05:01:08;21.50;1.00
506;DHT22;551;48.524;9.056;2023-07-09T05:03:34;22.30;1.00
506;DHT22;551;48.524;9.056;2023-07-09T05:05:59;22.80;1.00
506;DHT22;551;48.524;9.056;2023-07-09T05:08:25;23.20;1.00
506;DHT22;551;48.524;9.056;2023-07-09T05:10:51;23.70;1.00
506;DHT22;551;48.524;9.056;2023-07-09T05:13:18;24.40;1.00
506;DHT22;551;48.524;9.056;2023-07-09T05:15:46;25.10;1.00
506;DHT22;551;48.524;9.056;2023-07-09T05:18:13;25.90;1.00
506;DHT22;551;48.524;9.056;2023-07-09T05:20:39;26.40;1.00
506;DHT22;551;48.524;9.056;2023-07-09T05:23:05;26.60;1.00
506;DHT22;551;48.524;9.056;2023-07-09T05:25:31;26.80;1.00
506;DHT22;551;48.524;9.056;2023-07-09T05:27:56;26.90;1.00
506;DHT22;551;48.524;9.056;2023-07-09T05:30:22;27.40;1.00
506;DHT22;551;48.524;9.056;2023-07-09T05:32:47;28.20;1.00
506;DHT22;551;48.524;9.056;2023-07-09T05:35:13;29.00;1.00
506;DHT22;551;48.524;9.056;2023-07-09T05:37:39;29.50;1.00
506;DHT22;551;48.524;9.056;2023-07-09T05:40:07;30.50;1.00
506;DHT22;551;48.524;9.056;2023-07-09T05:42:33;31.50;1.00
506;DHT22;551;48.524;9.056;2023-07-09T05:44:59;32.40;1.00
506;DHT22;551;48.524;9.056;2023-07-09T05:47:25;33.20;1.00
506;DHT22;551;48.524;9.056;2023-07-09T05:49:51;34.00;1.00
506;DHT22;551;48.524;9.056;2023-07-09T05:52:18;34.70;1.00
506;DHT22;551;48.524;9.056;2023-07-09T05:54:44;35.30;1.00
506;DHT22;551;48.524;9.056;2023-07-09T05:57:10;35.70;1.00
506;DHT22;551;48.524;9.056;2023-07-09T05:59:35;36.80;1.00
506;DHT22;551;48.524;9.056;2023-07-09T06:02:01;37.60;1.00
506;DHT22;551;48.524;9.056;2023-07-09T06:04:28;38.10;1.00
506;DHT22;551;48.524;9.056;2023-07-09T06:06:53;38.60;1.00
506;DHT22;551;48.524;9.056;2023-07-09T06:09:19;39.10;1.00
506;DHT22;551;48.524;9.056;2023-07-09T06:11:44;39.20;1.00
506;DHT22;551;48.524;9.056;2023-07-09T06:14:10;39.70;1.00
506;DHT22;551;48.524;9.056;2023-07-09T06:16:35;39.80;1.00
506;DHT22;551;48.524;9.056;2023-07-09T06:19:02;39.90;1.00
506;DHT22;551;48.524;9.056;2023-07-09T06:21:28;40.60;1.00
506;DHT22;551;48.524;9.056;2023-07-09T06:23:53;40.90;1.00
506;DHT22;551;48.524;9.056;2023-07-09T06:26:19;41.40;1.00
506;DHT22;551;48.524;9.056;2023-07-09T06:28:44;41.90;1.00
506;DHT22;551;48.524;9.056;2023-07-09T06:31:10;42.30;1.00
506;DHT22;551;48.524;9.056;2023-07-09T06:33:35;42.90;1.00
506;DHT22;551;48.524;9.056;2023-07-09T06:36:02;43.10;1.00
506;DHT22;551;48.524;9.056;2023-07-09T06:38:28;43.10;1.00
506;DHT22;551;48.524;9.056;2023-07-09T06:40:54;43.20;1.00
506;DHT22;551;48.524;9.056;2023-07-09T06:43:21;43.40;1.00
506;DHT22;551;48.524;9.056;2023-07-09T06:45:55;43.50;1.00
506;DHT22;551;48.524;9.056;2023-07-09T06:48:21;43.80;1.00
506;DHT22;551;48.524;9.056;2023-07-09T06:50:47;44.00;1.00
506;DHT22;551;48.524;9.056;2023-07-09T06:53:13;43.60;1.00
506;DHT22;551;48.524;9.056;2023-07-09T06:55:38;43.40;1.00
506;DHT22;551;48.524;9.056;2023-07-09T06:58:04;43.50;1.00
506;DHT22;551;48.524;9.056;2023-07-09T07:00:30;43.80;1.00
506;DHT22;551;48.524;9.056;2023-07-09T07:02:58;44.00;1.00
506;DHT22;551;48.524;9.056;2023-07-09T07:05:24;44.30;1.00
506;DHT22;551;48.524;9.056;2023-07-09T07:07:49;45.00;1.00
506;DHT22;551;48.524;9.056;2023-07-09T07:10:15;45.40;1.00
506;DHT22;551;48.524;9.056;2023-07-09T07:12:45;45.50;1.00
506;DHT22;551;48.524;9.056;2023-07-09T07:15:16;45.80;1.00
506;DHT22;551;48.524;9.056;2023-07-09T07:17:44;45.60;1.00
506;DHT22;551;48.524;9.056;2023-07-09T07:20:10;45.60;1.00
506;DHT22;551;48.524;9.056;2023-07-09T07:22:37;46.20;1.00
506;DHT22;551;48.524;9.056;2023-07-09T07:25:04;46.80;1.00
506;DHT22;551;48.524;9.056;2023-07-09T07:27:30;47.00;1.00
506;DHT22;551;48.524;9.056;2023-07-09T07:29:56;47.70;1.00
506;DHT22;551;48.524;9.056;2023-07-09T07:32:22;47.60;1.00
506;DHT22;551;48.524;9.056;2023-07-09T07:34:48;47.60;1.00
506;DHT22;551;48.524;9.056;2023-07-09T07:37:14;47.60;1.00
506;DHT22;551;48.524;9.056;2023-07-09T07:39:39;47.90;1.00
506;DHT22;551;48.524;9.056;2023-07-09T07:42:06;49.10;1.00
506;DHT22;551;48.524;9.056;2023-07-09T07:44:32;49.70;1.00
506;DHT22;551;48.524;9.056;2023-07-09T07:46:57;50.00;1.00
506;DHT22;551;48.524;9.056;2023-07-09T07:49:23;50.00;1.00
506;DHT22;551;48.524;9.056;2023-07-09T07:51:48;50.40;1.00
506;DHT22;551;48.524;9.056;2023-07-09T07:54:14;51.00;1.00
506;DHT22;551;48.524;9.056;2023-07-09T07:56:41;51.00;1.00
506;DHT22;551;48.524;9.056;2023-07-09T07:59:06;51.50;1.00
506;DHT22;551;48.524;9.056;2023-07-09T08:01:32;52.20;1.00
506;DHT22;551;48.524;9.056;2023-07-09T08:04:01;51.40;1.00
506;DHT22;551;48.524;9.056;2023-07-09T08:06:26;51.70;1.00
506;DHT22;551;48.524;9.056;2023-07-09T08:08:52;51.60;1.00
506;DHT22;551;48.524;9.056;2023-07-09T08:11:17;51.80;1.00
506;DHT22;551;48.524;9.056;2023-07-09T08:13:43;51.60;1.00
506;DHT22;551;48.524;9.056;2023-07-09T08:16:09;52.00;1.00
506;DHT22;551;48.524;9.056;2023-07-09T08:18:37;52.10;1.00
506;DHT22;551;48.524;9.056;2023-07-09T08:21:02;52.40;1.00
506;DHT22;551;48.524;9.056;2023-07-09T08:23:28;52.80;1.00
506;DHT22;551;48.524;9.056;2023-07-09T08:25:56;53.50;1.00
506;DHT22;551;48.524;9.056;2023-07-09T08:28:21;53.20;1.00
506;DHT22;551;48.524;9.056;2023-07-09T08:30:47;52.90;1.00
506;DHT22;551;48.524;9.056;2023-07-09T08:33:13;53.40;1.00
506;DHT22;551;48.524;9.056;2023-07-09T08:35:39;53.20;1.00
506;DHT22;551;48.524;9.056;2023-07-09T08:38:07;53.00;1.00
506;DHT22;551;48.524;9.056;2023-07-09T08:40:32;53.20;1.00
506;DHT22;551;48.524;9.056;2023-07-09T08:43:10;53.60;1.00
506;DHT22;551;48.524;9.056;2023-07-09T08:48:24;54.10;1.00
506;DHT22;551;48.524;9.056;2023-07-09T08:50:58;54.40;1.00
506;DHT22;551;48.524;9.056;2023-07-09T08:53:38;54.20;1.00
506;DHT22;551;48.524;9.056;2023-07-09T08:56:09;54.50;1.00
506;DHT22;551;48.524;9.056;2023-07-09T08:58:36;54.60;1.00
506;DHT22;551;48.524;9.056;2023-07-09T09:01:05;54.10;1.00
506;DHT22;551;48.524;9.056;2023-07-09T09:03:48;53.80;1.00
506;DHT22;551;48.524;9.056;2023-07-09T09:06:16;53.70;1.00
506;DHT22;551;48.524;9.056;2023-07-09T09:11:47;53.90;1.00
506;DHT22;551;48.524;9.056;2023-07-09T09:16:49;54.00;1.00
506;DHT22;551;48.524;9.056;2023-07-09T09:21:58;55.00;1.00
506;DHT22;551;48.524;9.056;2023-07-09T09:27:02;55.80;1.00
506;DHT22;551;48.524;9.056;2023-07-09T09:29:28;55.70;1.00
506;DHT22;551;48.524;9.056;2023-07-09T09:31:56;55.30;1.00
506;DHT22;551;48.524;9.056;2023-07-09T09:34:27;55.10;1.00
506;DHT22;551;48.524;9.056;2023-07-09T09:36:54;54.50;1.00
506;DHT22;551;48.524;9.056;2023-07-09T09:39:20;54.20;1.00
506;DHT22;551;48.524;9.056;2023-07-09T09:41:48;53.90;1.00
506;DHT22;551;48.524;9.056;2023-07-09T09:44:25;54.20;1.00
506;DHT22;551;48.524;9.056;2023-07-09T09:46:51;55.20;1.00
506;DHT22;551;48.524;9.056;2023-07-09T09:49:17;55.60;1.00
506;DHT22;551;48.524;9.056;2023-07-09T09:51:45;55.80;1.00
506;DHT22;551;48.524;9.056;2023-07-09T09:54:24;55.60;1.00
506;DHT22;551;48.524;9.056;2023-07-09T09:56:52;55.80;1.00
506;DHT22;551;48.524;9.056;2023-07-09T09:59:32;55.40;1.00
506;DHT22;551;48.524;9.056;2023-07-09T10:02:00;55.40;1.00
506;DHT22;551;48.524;9.056;2023-07-09T10:04:27;55.10;1.00
506;DHT22;551;48.524;9.056;2023-07-09T10:06:56;55.20;1.00
506;DHT22;551;48.524;9.056;2023-07-09T10:09:41;55.10;1.00
506;DHT22;551;48.524;9.056;2023-07-09T10:15:28;54.40;1.00
506;DHT22;551;48.524;9.056;2023-07-09T10:18:03;53.50;1.00
506;DHT22;551;48.524;9.056;2023-07-09T10:21:10;54.00;1.00
506;DHT22;551;48.524;9.056;2023-07-09T10:23:50;52.90;1.00
506;DHT22;551;48.524;9.056;2023-07-09T10:26:34;53.20;1.00
506;DHT22;551;48.524;9.056;2023-07-09T10:31:55;53.60;1.00
506;DHT22;551;48.524;9.056;2023-07-09T10:34:32;53.60;1.00
506;DHT22;551;48.524;9.056;2023-07-09T10:39:55;54.00;1.00
506;DHT22;551;48.524;9.056;2023-07-09T10:42:28;54.10;1.00
506;DHT22;551;48.524;9.056;2023-07-09T10:45:02;53.80;1.00
506;DHT22;551;48.524;9.056;2023-07-09T10:47:45;53.70;1.00
506;DHT22;551;48.524;9.056;2023-07-09T10:50:17;53.60;1.00
506;DHT22;551;48.524;9.056;2023-07-09T10:52:46;53.20;1.00
506;DHT22;551;48.524;9.056;2023-07-09T10:55:21;52.40;1.00
506;DHT22;551;48.524;9.056;2023-07-09T10:58:13;52.10;1.00
506;DHT22;551;48.524;9.056;2023-07-09T11:00:41;52.20;1.00
506;DHT22;551;48.524;9.056;2023-07-09T11:03:24;51.70;1.00
506;DHT22;551;48.524;9.056;2023-07-09T11:05:51;51.80;1.00
506;DHT22;551;48.524;9.056;2023-07-09T11:08:23;52.50;1.00
506;DHT22;551;48.524;9.056;2023-07-09T11:10:56;52.90;1.00
506;DHT22;551;48.524;9.056;2023-07-09T11:13:43;52.40;1.00
506;DHT22;551;48.524;9.056;2023-07-09T11:16:14;51.60;1.00
506;DHT22;551;48.524;9.056;2023-07-09T11:18:54;51.80;1.00
506;DHT22;551;48.524;9.056;2023-07-09T11:21:20;51.70;1.00
506;DHT22;551;48.524;9.056;2023-07-09T11:23:54;51.90;1.00
506;DHT22;551;48.524;9.056;2023-07-09T11:26:30;52.20;1.00
506;DHT22;551;48.524;9.056;2023-07-09T11:29:17;52.60;1.00
506;DHT22;551;48.524;9.056;2023-07-09T11:31:45;52.40;1.00
506;DHT22;551;48.524;9.056;2023-07-09T11:34:16;52.70;1.00
506;DHT22;551;48.524;9.056;2023-07-09T11:36:51;52.70;1.00
506;DHT22;551;48.524;9.056;2023-07-09T11:41:52;52.80;1.00
506;DHT22;551;48.524;9.056;2023-07-09T11:44:24;52.30;1.00
506;DHT22;551;48.524;9.056;2023-07-09T11:49:56;51.80;1.00
506;DHT22;551;48.524;9.056;2023-07-09T11:52:41;51.70;1.00
506;DHT22;551;48.524;9.056;2023-07-09T11:55:29;51.50;1.00
506;DHT22;551;48.524;9.056;2023-07-09T11:57:59;50.70;1.00
506;DHT22;551;48.524;9.056;2023-07-09T12:00:28;49.70;1.00
506;DHT22;551;48.524;9.056;2023-07-09T12:02:54;48.70;1.00
506;DHT22;551;48.524;9.056;2023-07-09T12:05:25;47.60;1.00
506;DHT22;551;48.524;9.056;2023-07-09T12:07:51;46.40;1.00
506;DHT22;551;48.524;9.056;2023-07-09T12:10:25;45.50;1.00
506;DHT22;551;48.524;9.056;2023-07-09T12:12:59;44.50;1.00
506;DHT22;551;48.524;9.056;2023-07-09T12:15:29;43.50;1.00
506;DHT22;551;48.524;9.056;2023-07-09T12:18:08;42.90;1.00
506;DHT22;551;48.524;9.056;2023-07-09T12:20:35;42.30;1.00
506;DHT22;551;48.524;9.056;2023-07-09T12:23:26;41.90;1.00
506;DHT22;551;48.524;9.056;2023-07-09T12:25:52;41.30;1.00
506;DHT22;551;48.524;9.056;2023-07-09T12:28:20;40.90;1.00
506;DHT22;551;48.524;9.056;2023-07-09T12:30:47;40.60;1.00
506;DHT22;551;48.524;9.056;2023-07-09T12:33:17;40.20;1.00
506;DHT22;551;48.524;9.056;2023-07-09T12:35:44;40.00;1.00
506;DHT22;551;48.524;9.056;2023-07-09T12:38:19;39.90;1.00
506;DHT22;551;48.524;9.056;2023-07-09T12:40:47;40.00;1.00
506;DHT22;551;48.524;9.056;2023-07-09T12:43:13;40.10;1.00
506;DHT22;551;48.524;9.056;2023-07-09T12:45:39;40.00;1.00
506;DHT22;551;48.524;9.056;2023-07-09T12:48:05;39.90;1.00
506;DHT22;551;48.524;9.056;2023-07-09T12:50:35;40.00;1.00
506;DHT22;551;48.524;9.056;2023-07-09T12:53:16;40.10;1.00
506;DHT22;551;48.524;9.056;2023-07-09T12:55:45;39.90;1.00
506;DHT22;551;48.524;9.056;2023-07-09T12:58:22;39.90;1.00
506;DHT22;551;48.524;9.056;2023-07-09T13:00:50;39.90;1.00
506;DHT22;551;48.524;9.056;2023-07-09T13:03:19;39.70;1.00
506;DHT22;551;48.524;9.056;2023-07-09T13:06:03;39.70;1.00
506;DHT22;551;48.524;9.056;2023-07-09T13:08:39;39.60;1.00
506;DHT22;551;48.524;9.056;2023-07-09T13:11:17;39.40;1.00
506;DHT22;551;48.524;9.056;2023-07-09T13:13:58;39.30;1.00
506;DHT22;551;48.524;9.056;2023-07-09T13:16:24;39.20;1.00
506;DHT22;551;48.524;9.056;2023-07-09T13:18:49;39.20;1.00
506;DHT22;551;48.524;9.056;2023-07-09T13:21:17;39.20;1.00
506;DHT22;551;48.524;9.056;2023-07-09T13:23:43;39.00;1.00
506;DHT22;551;48.524;9.056;2023-07-09T13:26:08;38.80;1.00
506;DHT22;551;48.524;9.056;2023-07-09T13:28:34;38.70;1.00
506;DHT22;551;48.524;9.056;2023-07-09T13:31:17;38.60;1.00
506;DHT22;551;48.524;9.056;2023-07-09T13:33:50;38.60;1.00
506;DHT22;551;48.524;9.056;2023-07-09T13:36:17;38.70;1.00
506;DHT22;551;48.524;9.056;2023-07-09T13:38:43;38.60;1.00
506;DHT22;551;48.524;9.056;2023-07-09T13:41:17;38.40;1.00
506;DHT22;551;48.524;9.056;2023-07-09T13:43:45;38.40;1.00
506;DHT22;551;48.524;9.056;2023-07-09T13:46:11;38.40;1.00
506;DHT22;551;48.524;9.056;2023-07-09T13:48:39;38.30;1.00
506;DHT22;551;48.524;9.056;2023-07-09T13:51:19;38.40;1.00
506;DHT22;551;48.524;9.056;2023-07-09T13:53:45;38.50;1.00
506;DHT22;551;48.524;9.056;2023-07-09T13:56:11;38.60;1.00
506;DHT22;551;48.524;9.056;2023-07-09T13:58:36;38.70;1.00
506;DHT22;551;48.524;9.056;2023-07-09T14:01:15;38.60;1.00
506;DHT22;551;48.524;9.056;2023-07-09T14:03:41;38.40;1.00
506;DHT22;551;48.524;9.056;2023-07-09T14:06:15;38.20;1.00
506;DHT22;551;48.524;9.056;2023-07-09T14:08:41;37.90;1.00
506;DHT22;551;48.524;9.056;2023-07-09T14:11:16;37.70;1.00
506;DHT22;551;48.524;9.056;2023-07-09T14:13:41;37.60;1.00
506;DHT22;551;48.524;9.056;2023-07-09T14:16:11;37.50;1.00
506;DHT22;551;48.524;9.056;2023-07-09T14:18:37;37.50;1.00
506;DHT22;551;48.524;9.056;2023-07-09T14:21:11;37.50;1.00
506;DHT22;551;48.524;9.056;2023-07-09T14:23:38;37.60;1.00
506;DHT22;551;48.524;9.056;2023-07-09T14:26:04;37.40;1.00
506;DHT22;551;48.524;9.056;2023-07-09T14:28:29;37.30;1.00
506;DHT22;551;48.524;9.056;2023-07-09T14:30:55;37.10;1.00
506;DHT22;551;48.524;9.056;2023-07-09T14:33:21;37.10;1.00
506;DHT22;551;48.524;9.056;2023-07-09T14:35:48;37.00;1.00
506;DHT22;551;48.524;9.056;2023-07-09T14:40:46;37.00;1.00
506;DHT22;551;48.524;9.056;2023-07-09T14:43:12;37.00;1.00
506;DHT22;551;48.524;9.056;2023-07-09T14:45:38;37.00;1.00
506;DHT22;551;48.524;9.056;2023-07-09T14:48:15;37.00;1.00
506;DHT22;551;48.524;9.056;2023-07-09T14:50:41;37.00;1.00
506;DHT22;551;48.524;9.056;2023-07-09T14:53:23;36.90;1.00
506;DHT22;551;48.524;9.056;2023-07-09T14:55:49;36.80;1.00
506;DHT22;551;48.524;9.056;2023-07-09T14:58:20;36.70;1.00
506;DHT22;551;48.524;9.056;2023-07-09T15:00:46;36.70;1.00
506;DHT22;551;48.524;9.056;2023-07-09T15:03:22;36.60;1.00
506;DHT22;551;48.524;9.056;2023-07-09T15:05:48;36.50;1.00
506;DHT22;551;48.524;9.056;2023-07-09T15:08:17;36.40;1.00
506;DHT22;551;48.524;9.056;2023-07-09T15:10:43;36.30;1.00
506;DHT22;551;48.524;9.056;2023-07-09T15:13:17;36.20;1.00
506;DHT22;551;48.524;9.056;2023-07-09T15:15:44;36.20;1.00
506;DHT22;551;48.524;9.056;2023-07-09T15:18:12;36.30;1.00
506;DHT22;551;48.524;9.056;2023-07-09T15:20:38;36.30;1.00
506;DHT22;551;48.524;9.056;2023-07-09T15:23:05;36.40;1.00
506;DHT22;551;48.524;9.056;2023-07-09T15:25:30;36.60;1.00
506;DHT22;551;48.524;9.056;2023-07-09T15:27:56;36.70;1.00
506;DHT22;551;48.524;9.056;2023-07-09T15:30:27;36.70;1.00
506;DHT22;551;48.524;9.056;2023-07-09T15:32:56;36.80;1.00
506;DHT22;551;48.524;9.056;2023-07-09T15:35:26;36.80;1.00
506;DHT22;551;48.524;9.056;2023-07-09T15:37:54;36.80;1.00
506;DHT22;551;48.524;9.056;2023-07-09T15:40:27;36.70;1.00
506;DHT22;551;48.524;9.056;2023-07-09T15:42:58;36.70;1.00
506;DHT22;551;48.524;9.056;2023-07-09T15:45:26;36.50;1.00
506;DHT22;551;48.524;9.056;2023-07-09T15:47:52;36.50;1.00
506;DHT22;551;48.524;9.056;2023-07-09T15:50:26;36.40;1.00
506;DHT22;551;48.524;9.056;2023-07-09T15:52:53;36.40;1.00
506;DHT22;551;48.524;9.056;2023-07-09T15:55:24;36.30;1.00
506;DHT22;551;48.524;9.056;2023-07-09T15:57:52;36.30;1.00
506;DHT22;551;48.524;9.056;2023-07-09T16:00:21;36.20;1.00
506;DHT22;551;48.524;9.056;2023-07-09T16:02:49;36.10;1.00
506;DHT22;551;48.524;9.056;2023-07-09T16:05:23;36.00;1.00
506;DHT22;551;48.524;9.056;2023-07-09T16:07:50;35.90;1.00
506;DHT22;551;48.524;9.056;2023-07-09T16:10:17;35.80;1.00
506;DHT22;551;48.524;9.056;2023-07-09T16:12:42;35.70;1.00
506;DHT22;551;48.524;9.056;2023-07-09T16:15:12;35.60;1.00
506;DHT22;551;48.524;9.056;2023-07-09T16:17:40;35.50;1.00
506;DHT22;551;48.524;9.056;2023-07-09T16:20:08;35.50;1.00
506;DHT22;551;48.524;9.056;2023-07-09T16:22:34;35.40;1.00
506;DHT22;551;48.524;9.056;2023-07-09T16:25:13;35.40;1.00
506;DHT22;551;48.524;9.056;2023-07-09T16:27:41;35.50;1.00
506;DHT22;551;48.524;9.056;2023-07-09T16:30:19;35.50;1.00
506;DHT22;551;48.524;9.056;2023-07-09T16:32:45;35.40;1.00
506;DHT22;551;48.524;9.056;2023-07-09T16:35:13;35.40;1.00
506;DHT22;551;48.524;9.056;2023-07-09T16:37:40;35.40;1.00
506;DHT22;551;48.524;9.056;2023-07-09T16:40:20;35.50;1.00
506;DHT22;551;48.524;9.056;2023-07-09T16:42:47;35.50;1.00
506;DHT22;551;48.524;9.056;2023-07-09T16:45:14;35.50;1.00
506;DHT22;551;48.524;9.056;2023-07-09T16:47:41;35.60;1.00
506;DHT22;551;48.524;9.056;2023-07-09T16:50:16;35.50;1.00
506;DHT22;551;48.524;9.056;2023-07-09T16:52:43;35.50;1.00
506;DHT22;551;48.524;9.056;2023-07-09T16:55:14;35.50;1.00
506;DHT22;551;48.524;9.056;2023-07-09T16:57:39;35.50;1.00
506;DHT22;551;48.524;9.056;2023-07-09T17:00:24;35.50;1.00
506;DHT22;551;48.524;9.056;2023-07-09T17:02:50;35.40;1.00
506;DHT22;551;48.524;9.056;2023-07-09T17:05:16;35.40;1.00
506;DHT22;551;48.524;9.056;2023-07-09T17:07:41;35.40;1.00
506;DHT22;551;48.524;9.056;2023-07-09T17:10:11;35.40;1.00
506;DHT22;551;48.524;9.056;2023-07-09T17:12:37;35.40;1.00
506;DHT22;551;48.524;9.056;2023-07-09T17:15:35;35.50;1.00
506;DHT22;551;48.524;9.056;2023-07-09T17:18:04;35.50;1.00
506;DHT22;551;48.524;9.056;2023-07-09T17:20:35;35.60;1.00
506;DHT22;551;48.524;9.056;2023-07-09T17:23:01;35.70;1.00
506;DHT22;551;48.524;9.056;2023-07-09T17:25:34;35.70;1.00
506;DHT22;551;48.524;9.056;2023-07-09T17:30:38;35.50;1.00
506;DHT22;551;48.524;9.056;2023-07-09T17:33:04;35.30;1.00
506;DHT22;551;48.524;9.056;2023-07-09T17:35:31;35.20;1.00
506;DHT22;551;48.524;9.056;2023-07-09T17:37:58;35.10;1.00